createdAt,value
2022-12-08T10:35:15.184Z,4.00
2022-12-08T10:37:42.449Z,4.43
2022-12-08T10:40:09.532Z,4.18
2022-12-08T10:42:41.832Z,4.95
2022-12-08T10:45:08.828Z,3.58
2022-12-08T10:47:44.610Z,3.83
2022-12-08T10:52:57.245Z,3.78
2022-12-08T10:55:24.485Z,3.72
2022-12-08T10:57:51.419Z,4.20
2022-12-08T11:00:26.990Z,4.28
2022-12-08T11:02:59.091Z,4.32
2022-12-08T11:05:33.710Z,4.20
2022-12-08T11:08:01.095Z,4.03
2022-12-08T11:10:42.618Z,4.00
2022-12-08T11:13:38.091Z,4.30
2022-12-08T11:16:05.409Z,3.92
2022-12-08T11:18:43.450Z,3.78
2022-12-08T11:21:18.045Z,4.07
2022-12-08T11:23:49.524Z,4.63
2022-12-08T11:26:31.382Z,4.53
2022-12-08T11:28:58.554Z,4.55
2022-12-08T11:31:39.797Z,3.70
2022-12-08T11:34:06.884Z,3.95
2022-12-08T11:36:33.965Z,4.53
2022-12-08T11:39:02.310Z,4.20
2022-12-08T11:41:39.602Z,4.40
2022-12-08T11:44:25.537Z,3.88
2022-12-08T11:46:59.713Z,3.77
2022-12-08T11:49:36.486Z,4.47
2022-12-08T11:52:14.664Z,4.50
2022-12-08T11:55:09.133Z,3.90
2022-12-08T11:57:36.244Z,4.43
2022-12-08T12:00:04.805Z,4.28
2022-12-08T12:02:42.698Z,4.07
2022-12-08T12:05:55.379Z,4.30
2022-12-08T12:08:35.473Z,4.03
2022-12-08T12:11:35.082Z,4.03
2022-12-08T12:14:17.209Z,4.32
2022-12-08T12:16:48.882Z,4.32
2022-12-08T12:19:17.045Z,3.97
2022-12-08T12:21:49.859Z,4.00
2022-12-08T12:24:28.314Z,3.47
2022-12-08T12:27:00.797Z,3.80
2022-12-08T12:29:35.706Z,3.95
2022-12-08T12:32:09.719Z,4.00
2022-12-08T12:34:58.181Z,3.72
2022-12-08T12:37:42.000Z,4.05
2022-12-08T12:40:20.703Z,3.60
2022-12-08T12:42:57.106Z,3.72
2022-12-08T12:45:33.151Z,3.35
2022-12-08T12:53:26.852Z,2.95
2022-12-08T12:55:56.980Z,3.63
2022-12-08T12:58:30.102Z,3.72
2022-12-08T13:01:12.709Z,4.63
2022-12-08T13:03:50.597Z,3.38
2022-12-08T13:06:32.129Z,3.67
2022-12-08T13:08:59.318Z,4.45
2022-12-08T13:11:26.423Z,3.58
2022-12-08T13:14:28.453Z,3.58
2022-12-08T13:16:56.227Z,2.85
2022-12-08T13:19:23.250Z,3.40
2022-12-08T13:21:50.229Z,2.85
2022-12-08T13:24:30.681Z,2.85
2022-12-08T13:27:03.901Z,3.40
2022-12-08T13:29:34.585Z,0.98
2022-12-08T13:32:01.906Z,0.40
2022-12-08T13:34:37.584Z,0.40
2022-12-08T13:37:29.895Z,0.30
2022-12-08T13:39:59.352Z,0.70
2022-12-08T13:43:06.784Z,0.68
2022-12-08T22:15:31.391Z,10.47
2022-12-08T22:18:22.629Z,8.63
2022-12-08T22:20:52.687Z,9.13
2022-12-08T22:23:20.240Z,9.43
2022-12-08T22:25:58.962Z,9.03
2022-12-08T22:28:28.352Z,8.33
2022-12-08T22:30:55.468Z,10.17
2022-12-08T22:36:34.575Z,9.03
2022-12-08T22:39:04.170Z,8.00
2022-12-08T22:41:31.944Z,8.60
2022-12-08T22:50:19.677Z,9.47
2022-12-08T22:52:49.943Z,8.40
2022-12-08T22:55:17.137Z,9.00
2022-12-08T22:57:44.511Z,8.40
2022-12-08T23:00:52.457Z,8.87
2022-12-08T23:09:48.602Z,8.13
